createdAt,value
2023-03-21T00:00:58.219Z,9.27
2023-03-21T00:03:27.248Z,9.80
2023-03-21T00:05:55.431Z,9.20
2023-03-21T00:08:25.740Z,9.60
2023-03-21T00:10:58.633Z,9.30
2023-03-21T00:13:32.605Z,9.60
2023-03-21T00:16:19.195Z,9.13
2023-03-21T00:18:55.679Z,9.80
2023-03-21T00:24:17.766Z,9.27
2023-03-21T00:26:46.294Z,10.20
2023-03-21T00:29:15.613Z,9.97
2023-03-21T00:31:43.535Z,9.57
2023-03-21T00:36:44.488Z,10.17
2023-03-21T00:39:12.525Z,10.60
2023-03-21T00:41:43.137Z,9.97
2023-03-21T00:44:13.916Z,10.20
2023-03-21T00:46:51.650Z,10.07
2023-03-21T00:49:29.503Z,11.07
2023-03-21T00:51:59.532Z,10.80
2023-03-21T00:54:33.811Z,12.27
2023-03-21T00:57:01.745Z,12.63
2023-03-21T00:59:36.360Z,13.13
2023-03-21T01:02:07.400Z,14.33
2023-03-21T01:04:35.718Z,15.03
2023-03-21T01:07:03.543Z,16.20
2023-03-21T01:09:32.695Z,15.77
2023-03-21T01:12:01.058Z,15.57
2023-03-21T01:14:33.122Z,16.20
2023-03-21T01:17:02.381Z,16.07
2023-03-21T01:19:50.316Z,15.17
2023-03-21T01:22:20.733Z,15.60
2023-03-21T01:25:05.731Z,16.47
2023-03-21T01:27:36.811Z,16.97
2023-03-21T01:30:11.279Z,15.80
2023-03-21T01:32:45.395Z,16.27
2023-03-21T01:35:14.891Z,17.33
2023-03-21T01:37:43.670Z,17.83
2023-03-21T01:40:18.782Z,17.10
2023-03-21T01:42:49.271Z,18.27
2023-03-21T01:45:56.070Z,18.30
2023-03-21T01:48:27.850Z,17.90
2023-03-21T01:51:02.293Z,17.50
2023-03-21T01:53:38.628Z,17.20
2023-03-21T01:56:22.843Z,17.77
2023-03-21T01:58:57.805Z,17.70
2023-03-21T02:05:04.011Z,16.00
2023-03-21T02:08:25.866Z,17.07
2023-03-21T02:11:27.167Z,17.33
2023-03-21T02:20:42.834Z,16.30
2023-03-21T02:23:53.226Z,17.13
2023-03-21T02:27:04.325Z,16.07
2023-03-21T02:30:45.587Z,16.53
2023-03-21T02:33:57.693Z,16.13
2023-03-21T02:36:42.941Z,16.73
2023-03-21T02:42:33.276Z,16.20
2023-03-21T02:46:24.221Z,16.17
2023-03-21T02:49:45.118Z,16.77
2023-03-21T02:56:04.122Z,16.77
2023-03-21T02:59:12.493Z,17.07
2023-03-21T03:05:02.865Z,16.97
2023-03-21T03:08:35.771Z,17.07
2023-03-21T03:15:35.485Z,17.30
2023-03-21T03:18:16.051Z,17.03
2023-03-21T03:20:59.794Z,16.70
2023-03-21T03:30:29.659Z,17.03
2023-03-21T03:33:20.454Z,16.83
2023-03-21T03:36:30.448Z,17.13
2023-03-21T03:42:25.241Z,16.60
2023-03-21T03:45:04.279Z,17.40
2023-03-21T03:47:57.063Z,16.83
2023-03-21T03:50:33.755Z,17.17
2023-03-21T03:53:18.073Z,16.17
2023-03-21T03:55:54.811Z,17.13
2023-03-21T04:17:34.294Z,17.67
2023-03-21T04:27:43.783Z,19.00
2023-03-21T04:33:28.467Z,22.40
2023-03-21T04:36:26.887Z,19.93
2023-03-21T04:42:45.419Z,23.53
2023-03-21T04:46:31.971Z,20.37
2023-03-21T04:53:35.046Z,22.57
2023-03-21T05:00:09.142Z,22.90
2023-03-21T05:03:08.245Z,24.60
2023-03-21T05:06:26.630Z,25.67
2023-03-21T05:15:49.817Z,23.33
2023-03-21T05:18:36.651Z,22.73
2023-03-21T05:21:52.330Z,21.20
2023-03-21T05:24:41.155Z,23.83
2023-03-21T05:27:49.607Z,22.67
2023-03-21T05:30:47.951Z,28.33
2023-03-21T05:33:15.942Z,28.83
2023-03-21T05:35:47.801Z,26.70
2023-03-21T05:38:21.342Z,25.33
2023-03-21T05:40:52.105Z,26.73
2023-03-21T05:43:20.051Z,27.80
2023-03-21T05:45:48.408Z,28.43
2023-03-21T05:48:16.524Z,26.23
2023-03-21T05:50:44.460Z,27.73
2023-03-21T05:53:12.476Z,28.43
2023-03-21T05:55:44.909Z,26.80
2023-03-21T05:58:16.707Z,24.70
2023-03-21T06:00:49.476Z,24.90
2023-03-21T06:03:30.912Z,24.97
2023-03-21T06:06:11.707Z,25.27
2023-03-21T06:11:49.499Z,23.53
2023-03-21T06:14:26.364Z,23.13
2023-03-21T06:17:02.623Z,21.83
2023-03-21T06:19:34.863Z,20.90
2023-03-21T06:22:03.391Z,19.10
2023-03-21T06:24:46.302Z,17.87
2023-03-21T06:27:32.622Z,21.10
2023-03-21T06:30:14.654Z,18.80
2023-03-21T06:32:55.891Z,18.20
2023-03-21T06:35:36.938Z,20.23
2023-03-21T06:38:13.351Z,21.13
2023-03-21T06:40:47.116Z,22.60
2023-03-21T06:43:24.668Z,24.10
2023-03-21T06:46:09.669Z,25.80
2023-03-21T06:48:50.239Z,26.73
2023-03-21T06:51:22.912Z,27.70
2023-03-21T06:54:05.698Z,26.20
2023-03-21T06:57:02.822Z,25.80
2023-03-21T06:59:38.479Z,30.27
2023-03-21T07:02:16.598Z,27.60
2023-03-21T07:04:47.529Z,27.70
2023-03-21T07:07:21.575Z,27.57
2023-03-21T07:09:53.495Z,26.27
2023-03-21T07:12:23.317Z,23.70
2023-03-21T07:14:53.415Z,22.60
2023-03-21T07:17:21.615Z,23.63
2023-03-21T07:19:49.563Z,22.93
2023-03-21T07:22:18.679Z,21.70
2023-03-21T07:25:02.401Z,21.60
2023-03-21T07:27:34.914Z,19.93
2023-03-21T07:30:05.061Z,18.77
2023-03-21T07:32:35.592Z,19.03
2023-03-21T07:35:04.375Z,19.00
2023-03-21T07:37:43.430Z,18.80
2023-03-21T07:40:18.466Z,18.50
2023-03-21T07:42:47.131Z,18.00
2023-03-21T07:45:23.363Z,16.90
2023-03-21T07:47:52.137Z,16.40
2023-03-21T07:50:22.168Z,16.27
2023-03-21T07:52:50.522Z,16.87
2023-03-21T07:55:18.800Z,16.07
2023-03-21T07:57:47.204Z,15.63
2023-03-21T08:00:23.235Z,15.77
2023-03-21T08:02:58.856Z,14.93
2023-03-21T08:05:29.940Z,15.93
2023-03-21T08:07:58.616Z,14.70
2023-03-21T08:10:29.268Z,13.93
2023-03-21T08:12:57.467Z,15.00
2023-03-21T08:15:26.936Z,15.63
2023-03-21T08:17:54.853Z,16.60
2023-03-21T08:20:24.004Z,15.80
2023-03-21T08:22:52.309Z,16.67
2023-03-21T08:25:22.313Z,17.10
2023-03-21T08:27:51.552Z,17.10
2023-03-21T08:30:22.556Z,16.33
2023-03-21T08:32:52.424Z,16.40
2023-03-21T08:35:21.571Z,15.57
2023-03-21T08:37:53.346Z,15.83
2023-03-21T08:40:21.693Z,15.80
2023-03-21T08:42:49.683Z,15.87
2023-03-21T08:45:19.255Z,14.43
2023-03-21T08:47:47.460Z,14.33
2023-03-21T08:50:19.371Z,14.83
2023-03-21T08:52:47.274Z,14.80
2023-03-21T08:55:17.069Z,14.73
2023-03-21T08:57:45.862Z,15.47
2023-03-21T09:00:17.335Z,16.10
2023-03-21T09:02:46.813Z,15.53
2023-03-21T09:05:16.974Z,15.00
2023-03-21T09:07:45.445Z,13.80
2023-03-21T09:10:21.105Z,15.07
2023-03-21T09:12:50.606Z,14.93
2023-03-21T09:15:21.746Z,13.87
2023-03-21T09:17:52.773Z,14.03
2023-03-21T09:20:26.308Z,13.73
2023-03-21T09:22:55.309Z,14.83
2023-03-21T09:25:23.832Z,14.07
2023-03-21T09:27:52.450Z,16.00
2023-03-21T09:30:24.194Z,15.13
2023-03-21T09:32:55.600Z,13.90
2023-03-21T09:35:27.127Z,13.30
2023-03-21T09:37:59.003Z,14.97
2023-03-21T09:40:41.513Z,16.83
2023-03-21T09:43:23.463Z,15.93
2023-03-21T09:45:58.758Z,16.17
2023-03-21T09:48:54.359Z,15.37
2023-03-21T09:51:29.409Z,17.00
2023-03-21T09:54:01.030Z,17.50
2023-03-21T09:56:29.329Z,16.30
2023-03-21T09:59:01.424Z,15.20
2023-03-21T10:01:35.292Z,16.17
2023-03-21T10:04:06.668Z,15.37
2023-03-21T10:06:41.183Z,14.00
2023-03-21T10:09:15.477Z,13.70
2023-03-21T10:11:46.201Z,15.33
2023-03-21T10:14:19.594Z,15.30
2023-03-21T10:16:51.060Z,16.57
2023-03-21T10:19:21.400Z,15.93
2023-03-21T10:22:02.409Z,15.00
2023-03-21T10:24:34.323Z,15.98
2023-03-21T10:27:03.812Z,16.23
2023-03-21T10:29:37.786Z,15.75
2023-03-21T10:32:10.366Z,15.75
2023-03-21T10:34:42.664Z,16.73
2023-03-21T10:37:13.957Z,14.80
2023-03-21T10:39:43.250Z,14.32
2023-03-21T10:42:19.962Z,14.68
2023-03-21T10:44:49.846Z,15.43
2023-03-21T10:47:23.303Z,15.23
2023-03-21T10:50:10.357Z,13.02
2023-03-21T10:52:46.956Z,12.95
2023-03-21T10:55:28.794Z,13.30
2023-03-21T10:58:00.490Z,13.73
2023-03-21T11:00:31.450Z,13.45
2023-03-21T11:02:59.918Z,13.10
2023-03-21T11:05:35.203Z,13.50
2023-03-21T11:08:08.007Z,12.90
2023-03-21T11:10:52.306Z,13.70
2023-03-21T11:13:26.239Z,12.65
2023-03-21T11:15:56.507Z,11.57
2023-03-21T11:18:27.618Z,11.38
2023-03-21T11:20:58.036Z,10.77
2023-03-21T11:23:30.812Z,7.93
2023-03-21T11:26:01.225Z,8.77
2023-03-21T11:28:37.532Z,9.05
2023-03-21T11:31:09.210Z,9.20
2023-03-21T11:33:40.338Z,10.75
2023-03-21T11:36:26.218Z,7.00
2023-03-21T11:38:58.589Z,7.80
2023-03-21T11:41:30.478Z,9.18
2023-03-21T11:43:59.448Z,8.30
2023-03-21T11:46:29.202Z,8.95
2023-03-21T11:48:58.552Z,8.93
2023-03-21T11:51:34.819Z,6.97
2023-03-21T11:54:13.473Z,7.10
2023-03-21T11:56:45.399Z,8.48
2023-03-21T11:59:37.309Z,7.10
2023-03-21T12:02:23.267Z,8.20
2023-03-21T12:04:56.057Z,6.63
2023-03-21T12:07:37.729Z,6.85
2023-03-21T12:10:38.155Z,6.72
2023-03-21T12:13:19.160Z,7.38
2023-03-21T12:15:56.440Z,7.00
2023-03-21T12:19:00.396Z,6.47
2023-03-21T12:21:34.960Z,6.63
2023-03-21T12:24:08.862Z,6.75
2023-03-21T12:26:45.004Z,5.90
2023-03-21T12:29:37.602Z,6.20
2023-03-21T12:32:19.288Z,6.07
2023-03-21T12:35:02.924Z,6.80
2023-03-21T12:37:38.260Z,6.85
2023-03-21T12:40:16.149Z,6.40
2023-03-21T12:43:08.527Z,7.55
2023-03-21T12:45:47.067Z,6.03
2023-03-21T12:48:24.655Z,6.32
2023-03-21T12:50:55.894Z,5.60
2023-03-21T12:53:36.177Z,5.97
2023-03-21T12:56:09.305Z,6.55
2023-03-21T12:58:47.050Z,5.85
2023-03-21T13:01:19.226Z,6.10
2023-03-21T13:03:54.317Z,6.07
2023-03-21T13:06:26.956Z,6.30
2023-03-21T13:08:59.404Z,6.22
2023-03-21T13:11:31.492Z,6.10
2023-03-21T13:14:06.411Z,7.28
2023-03-21T13:16:38.692Z,6.72
2023-03-21T13:19:19.467Z,7.13
2023-03-21T13:21:55.927Z,7.05
2023-03-21T13:24:30.278Z,7.30
2023-03-21T13:27:06.732Z,7.68
2023-03-21T13:29:44.328Z,6.68
2023-03-21T13:32:21.895Z,6.55
2023-03-21T13:34:56.378Z,6.22
2023-03-21T13:37:27.745Z,6.60
2023-03-21T13:40:02.318Z,5.88
2023-03-21T13:42:34.407Z,6.68
2023-03-21T13:45:10.727Z,6.20
2023-03-21T13:47:54.414Z,6.55
2023-03-21T13:50:25.661Z,5.65
2023-03-21T13:53:21.621Z,6.25
2023-03-21T13:56:00.504Z,6.40
2023-03-21T13:58:37.983Z,6.35
2023-03-21T14:01:23.954Z,6.65
2023-03-21T14:03:59.595Z,7.68
2023-03-21T14:06:35.435Z,6.88
2023-03-21T14:09:04.244Z,7.75
2023-03-21T14:11:41.972Z,6.57
2023-03-21T14:14:12.339Z,6.80
2023-03-21T14:16:42.687Z,7.10
2023-03-21T14:19:12.992Z,6.75
2023-03-21T14:21:48.490Z,6.50
2023-03-21T14:24:17.642Z,6.67
2023-03-21T14:26:48.326Z,6.00
2023-03-21T14:29:25.989Z,6.40
2023-03-21T14:31:57.494Z,9.63
2023-03-21T14:34:27.644Z,7.27
2023-03-21T14:36:58.493Z,7.00
2023-03-21T14:39:30.867Z,7.40
2023-03-21T14:42:05.100Z,7.40
2023-03-21T14:44:53.460Z,6.90
2023-03-21T14:47:27.818Z,7.60
2023-03-21T14:49:57.078Z,6.60
2023-03-21T14:52:27.304Z,7.87
2023-03-21T14:54:56.730Z,9.10
2023-03-21T14:57:29.134Z,8.27
2023-03-21T15:00:02.307Z,7.37
2023-03-21T15:02:37.152Z,9.37
2023-03-21T15:05:15.750Z,7.97
2023-03-21T15:07:43.839Z,8.93
2023-03-21T15:10:19.145Z,8.53
2023-03-21T15:12:54.943Z,7.87
2023-03-21T15:15:36.651Z,7.13
2023-03-21T15:18:07.990Z,6.90
2023-03-21T15:20:39.221Z,6.50
2023-03-21T15:23:11.502Z,7.70
2023-03-21T15:25:40.263Z,6.97
2023-03-21T15:28:08.619Z,7.70
2023-03-21T15:30:36.591Z,7.00
2023-03-21T15:33:11.656Z,9.40
2023-03-21T15:35:42.575Z,9.03
2023-03-21T15:38:24.057Z,9.33
2023-03-21T15:40:52.240Z,7.50
2023-03-21T15:43:21.472Z,8.90
2023-03-21T15:45:50.937Z,8.33
2023-03-21T15:48:23.332Z,8.17
2023-03-21T15:50:58.834Z,11.60
2023-03-21T15:53:27.109Z,8.33
2023-03-21T15:56:02.000Z,8.93
2023-03-21T15:58:39.512Z,10.60
2023-03-21T16:01:12.762Z,9.00
2023-03-21T16:03:46.192Z,9.10
2023-03-21T16:06:19.914Z,8.70
2023-03-21T16:08:50.308Z,7.97
2023-03-21T16:11:24.600Z,8.63
2023-03-21T16:13:54.515Z,8.00
2023-03-21T16:16:26.138Z,14.03
2023-03-21T16:18:57.116Z,10.83
2023-03-21T16:21:28.593Z,10.53
2023-03-21T16:26:52.880Z,8.70
2023-03-21T16:29:21.337Z,9.23
2023-03-21T16:31:50.088Z,10.10
2023-03-21T16:34:19.470Z,10.10
2023-03-21T16:36:55.795Z,11.67
2023-03-21T16:39:27.754Z,11.37
2023-03-21T16:41:58.811Z,11.33
2023-03-21T16:44:40.393Z,11.40
2023-03-21T16:47:19.209Z,11.87
2023-03-21T16:49:56.631Z,12.20
2023-03-21T16:52:26.401Z,11.83
2023-03-21T16:55:01.544Z,13.93
2023-03-21T16:57:34.542Z,15.07
2023-03-21T17:00:08.285Z,15.30
2023-03-21T17:05:55.431Z,14.30
2023-03-21T17:08:56.695Z,17.17
2023-03-21T17:12:01.228Z,19.17
2023-03-21T17:14:54.068Z,18.47
2023-03-21T17:20:44.730Z,15.80
2023-03-21T17:23:51.084Z,17.93
2023-03-21T17:26:31.496Z,16.57
2023-03-21T17:29:07.035Z,12.93
2023-03-21T17:34:35.382Z,11.77
2023-03-21T17:37:28.107Z,11.87
2023-03-21T17:43:40.528Z,11.03
2023-03-21T17:46:16.462Z,11.23
2023-03-21T17:48:51.036Z,12.23
2023-03-21T17:51:33.168Z,13.20
2023-03-21T17:54:09.409Z,12.50
2023-03-21T17:56:55.284Z,12.50
2023-03-21T17:59:46.863Z,12.57
2023-03-21T18:02:22.455Z,13.10
2023-03-21T18:05:08.366Z,12.80
2023-03-21T18:08:09.882Z,14.37
2023-03-21T18:10:43.484Z,13.47
2023-03-21T18:13:29.045Z,13.60
2023-03-21T18:16:14.864Z,14.20
2023-03-21T18:18:57.586Z,16.03
2023-03-21T18:21:32.891Z,16.03
2023-03-21T18:24:10.522Z,15.97
2023-03-21T18:26:43.427Z,16.43
2023-03-21T18:32:23.882Z,19.73
2023-03-21T18:35:23.477Z,22.80
2023-03-21T18:38:05.980Z,24.20
2023-03-21T18:41:03.820Z,25.57
2023-03-21T18:44:05.323Z,27.40
2023-03-21T18:46:46.892Z,24.90
2023-03-21T18:54:57.661Z,26.57
2023-03-21T18:57:45.979Z,24.10
2023-03-21T19:03:34.743Z,21.27
2023-03-21T19:06:19.025Z,22.07
2023-03-21T19:08:52.865Z,20.07
2023-03-21T19:11:23.197Z,22.33
2023-03-21T19:13:53.198Z,19.33
2023-03-21T19:16:26.497Z,19.47
2023-03-21T19:18:58.078Z,20.37
2023-03-21T19:21:27.594Z,19.83
2023-03-21T19:26:47.184Z,19.03
2023-03-21T19:29:19.838Z,19.50
2023-03-21T19:31:49.612Z,20.17
2023-03-21T19:34:17.932Z,21.30
2023-03-21T19:36:51.452Z,20.87
2023-03-21T19:39:24.759Z,21.47
2023-03-21T19:42:14.696Z,21.43
2023-03-21T19:44:46.923Z,21.40
2023-03-21T19:47:16.658Z,24.03
2023-03-21T19:52:37.535Z,22.60
2023-03-21T19:55:07.015Z,23.60
2023-03-21T19:57:39.027Z,25.60
2023-03-21T20:00:13.896Z,24.57
2023-03-21T20:02:45.524Z,25.87
2023-03-21T20:05:15.592Z,26.70
2023-03-21T20:07:45.622Z,26.63
2023-03-21T20:10:13.649Z,27.67
2023-03-21T20:12:42.844Z,25.40
2023-03-21T20:15:20.905Z,23.80
2023-03-21T20:17:52.938Z,23.83
2023-03-21T20:20:23.951Z,25.70
2023-03-21T20:23:07.294Z,25.37
2023-03-21T20:25:44.186Z,25.10
2023-03-21T20:28:54.867Z,23.50
2023-03-21T20:31:31.652Z,24.73
2023-03-21T20:34:28.486Z,26.43
2023-03-21T20:37:08.500Z,26.43
2023-03-21T20:40:03.974Z,25.23
2023-03-21T20:42:37.281Z,26.77
2023-03-21T20:45:15.984Z,24.27
2023-03-21T20:47:48.648Z,26.87
2023-03-21T20:50:22.005Z,25.47
2023-03-21T20:53:05.917Z,25.90
2023-03-21T20:55:36.553Z,23.40
2023-03-21T20:58:26.797Z,26.33
2023-03-21T21:00:56.375Z,22.70
2023-03-21T21:03:24.793Z,21.53
2023-03-21T21:05:54.151Z,2.87
2023-03-21T21:08:22.009Z,2.50
2023-03-21T21:11:30.190Z,2.23
2023-03-21T21:13:39.300Z,2.57
2023-03-21T21:16:10.730Z,2.50
2023-03-21T21:18:38.659Z,3.10
2023-03-21T21:21:08.708Z,2.57
2023-03-21T21:23:38.371Z,3.23
2023-03-21T21:26:09.802Z,3.10
2023-03-21T21:28:38.448Z,2.93
2023-03-21T21:31:15.169Z,2.47
2023-03-21T21:33:46.684Z,2.73
2023-03-21T21:36:24.584Z,2.47
2023-03-21T21:38:59.380Z,2.57
2023-03-21T21:41:42.832Z,2.67
2023-03-21T21:44:18.838Z,2.53
2023-03-21T21:46:47.267Z,3.20
2023-03-21T21:49:15.285Z,2.13
2023-03-21T21:51:43.196Z,2.53
2023-03-21T21:54:18.067Z,2.00
2023-03-21T21:56:55.215Z,2.13
2023-03-21T21:59:26.035Z,1.80
2023-03-21T22:01:59.616Z,1.77
2023-03-21T22:04:31.858Z,1.83
2023-03-21T22:07:06.699Z,1.73
2023-03-21T22:09:34.643Z,1.00
2023-03-21T22:12:03.933Z,1.50
2023-03-21T22:14:31.796Z,0.93
2023-03-21T22:17:00.128Z,1.00
2023-03-21T22:19:28.432Z,1.37
2023-03-21T22:21:58.243Z,1.23
2023-03-21T22:24:26.354Z,1.10
2023-03-21T22:26:58.044Z,0.90
2023-03-21T22:29:32.117Z,0.87
2023-03-21T22:32:00.902Z,0.90
2023-03-21T22:34:31.245Z,1.07
2023-03-21T22:37:05.770Z,1.00
2023-03-21T22:39:34.664Z,0.80
2023-03-21T22:42:12.736Z,0.80
2023-03-21T22:44:45.762Z,0.83
2023-03-21T22:47:20.649Z,0.70
2023-03-21T22:49:49.128Z,1.20
2023-03-21T22:52:24.598Z,1.07
2023-03-21T22:54:53.017Z,0.73
2023-03-21T22:57:21.174Z,1.43
2023-03-21T22:59:50.443Z,0.80
2023-03-21T23:02:19.395Z,0.93
2023-03-21T23:04:47.243Z,0.77
2023-03-21T23:07:15.664Z,1.07
2023-03-21T23:09:43.801Z,0.80
2023-03-21T23:12:11.787Z,0.90
2023-03-21T23:14:39.650Z,1.00
2023-03-21T23:17:10.130Z,1.20
2023-03-21T23:19:40.867Z,0.60
2023-03-21T23:22:08.991Z,0.83
2023-03-21T23:24:36.842Z,0.90
2023-03-21T23:27:04.800Z,0.90
2023-03-21T23:29:32.651Z,1.20
2023-03-21T23:32:00.968Z,0.77
2023-03-21T23:34:30.365Z,1.20
2023-03-21T23:36:58.440Z,1.03
2023-03-21T23:39:26.496Z,1.10
2023-03-21T23:41:54.360Z,1.27
2023-03-21T23:44:22.213Z,1.13
2023-03-21T23:46:50.147Z,1.20
2023-03-21T23:49:18.225Z,0.87
2023-03-21T23:51:52.215Z,0.97
2023-03-21T23:54:20.089Z,1.03
2023-03-21T23:56:47.968Z,1.00
2023-03-21T23:59:26.496Z,1.23
